Rusich-7 — UBUI — position and weather

sailwx.info

Track history (hours):
 
Tides and Currents Weather Stations Pressure Air Temp Water Temp Dewpoint Dewpoint Depression Visibility Wind Speed Wind Dir Waves Ship Positions

Rusich-7

Last reported at 2018-Jun-06 11:38 UTC. Time now 2018-Jun-20 18:50 UTC.
Position N 56°19' E 044°06'.
Warning: this ship's position is 14 days out of date.

Length 128 m; draft 3 m.

Type: Cargo ship. MMSI: 273310950.

Date/timePositionNaut miles runAvg speedWind from/ knotsBaromVisibWave heightAir tempDewpointWater temp
2018-Jun-06 11:38N 56°19' E 044°06'110.1
2018-Jun-06 11:30N 56°20' E 044°05'5 9.2
2018-Jun-06 11:00N 56°21' E 043°57'4 8.8
2018-Jun-06 10:30N 56°24' E 043°52'4 7.4
2018-Jun-06 10:00N 56°25' E 043°45'  
2018-Jun-01 02:16N 59°50' E 030°32'2 5.8
2018-Jun-01 01:59N 59°51' E 030°30'3 4.7
2018-Jun-01 01:26N 59°53' E 030°27'1 2.1
2018-Jun-01 01:00N 59°54' E 030°26'1 1.3
2018-Jun-01 00:30N 59°54' E 030°25'2 3.0
2018-Jun-01 00:00N 59°56' E 030°24'2 3.2
2018-May-31 23:30N 59°57' E 030°23'2 5.0
2018-May-31 23:01N 59°56' E 030°18'2 3.4
2018-May-31 22:30N 59°55' E 030°16'0 0.8
2018-May-31 22:00N 59°55' E 030°15'0 0.0
2018-May-31 21:31N 59°55' E 030°15'0 0.0
2018-May-31 20:52N 59°55' E 030°15'0 0.0
2018-May-31 20:28N 59°55' E 030°15'0 0.0
2018-May-31 19:58N 59°55' E 030°15'0 0.0
2018-May-31 19:16N 59°55' E 030°15'0 0.0
2018-May-31 18:52N 59°55' E 030°15'0 0.0
2018-May-31 18:25N 59°55' E 030°15'0 0.0
2018-May-31 17:58N 59°55' E 030°15'0 0.0
2018-May-31 17:28N 59°55' E 030°15'0 0.0
2018-May-31 16:58N 59°55' E 030°15'0 0.0
2018-May-31 16:29N 59°55' E 030°15'0 0.0
2018-May-31 15:59N 59°55' E 030°15'0 0.0
2018-May-31 15:29N 59°55' E 030°15'0 0.0
2018-May-31 14:56N 59°55' E 030°15'0 0.0
2018-May-31 14:29N 59°55' E 030°15'0 0.0
2018-May-31 13:59N 59°55' E 030°15'0 0.0
2018-May-31 13:30N 59°55' E 030°15'0 0.0
2018-May-31 12:59N 59°55' E 030°15'0 0.0
2018-May-31 12:29N 59°55' E 030°15'0 0.0
2018-May-31 11:58N 59°55' E 030°15'0 0.0
2018-May-31 11:29N 59°55' E 030°15'0 0.0
2018-May-31 10:59N 59°55' E 030°15'0 0.0
2018-May-31 10:29N 59°55' E 030°15'0 0.0
2018-May-31 09:56N 59°55' E 030°15'0 0.0
2018-May-31 09:23N 59°55' E 030°15'0 0.0
2018-May-31 08:59N 59°55' E 030°15'0 0.0
2018-May-31 08:29N 59°55' E 030°15'0 0.0
2018-May-31 07:59N 59°55' E 030°15'0 0.0
2018-May-31 07:29N 59°55' E 030°15'0 0.0
2018-May-31 06:59N 59°55' E 030°15'0 0.0
2018-May-31 06:26N 59°55' E 030°15'0 0.0
2018-May-31 05:53N 59°55' E 030°15'0 0.0
2018-May-31 05:29N 59°55' E 030°15'0 0.0
2018-May-31 04:59N 59°55' E 030°15'0 0.0
2018-May-31 04:29N 59°55' E 030°15'0 0.0
2018-May-31 03:59N 59°55' E 030°15'0 0.0
2018-May-31 03:29N 59°55' E 030°15'0 0.0
2018-May-31 02:59N 59°55' E 030°15'0 0.0
2018-May-31 02:29N 59°55' E 030°15'0 0.0
2018-May-31 01:59N 59°55' E 030°15'0 0.0
2018-May-31 01:29N 59°55' E 030°15'0 0.0
2018-May-31 00:59N 59°55' E 030°15'0 0.0
2018-May-31 00:26N 59°55' E 030°15'0 0.0
2018-May-30 23:59N 59°55' E 030°15'0 0.0
2018-May-30 23:29N 59°55' E 030°15'0 0.0
2018-May-30 22:51N 59°55' E 030°15'0 0.0
2018-May-30 22:30N 59°55' E 030°15'0 0.0
2018-May-30 21:57N 59°55' E 030°15'0 0.0
2018-May-30 21:30N 59°55' E 030°15'0 0.0
2018-May-30 20:58N 59°55' E 030°15'0 0.0
2018-May-30 20:30N 59°55' E 030°15'0 0.0
2018-May-30 19:58N 59°55' E 030°15'0 0.0
2018-May-30 19:28N 59°55' E 030°15'0 0.0
2018-May-30 18:58N 59°55' E 030°15'0 0.0
2018-May-30 18:28N 59°55' E 030°15'0 0.0
2018-May-30 17:58N 59°55' E 030°15'0 0.0
2018-May-30 17:30N 59°55' E 030°15'0 0.0
2018-May-30 16:57N 59°55' E 030°15'0 0.0
2018-May-30 16:30N 59°55' E 030°15'0 0.0
2018-May-30 15:50N 59°55' E 030°15'0 0.0
2018-May-30 15:27N 59°55' E 030°15'0 0.0
2018-May-30 15:00N 59°55' E 030°15'0 0.0
2018-May-30 14:30N 59°55' E 030°15'0 0.0
2018-May-30 14:00N 59°55' E 030°15'0 0.0
2018-May-30 13:25N 59°55' E 030°15'0 0.0
2018-May-30 12:58N 59°55' E 030°15'0 0.0
2018-May-30 12:25N 59°55' E 030°15'0 0.0
2018-May-30 11:58N 59°55' E 030°15'0 0.0
2018-May-30 11:28N 59°55' E 030°15'0 0.0
2018-May-30 10:58N 59°55' E 030°15'0 0.0
2018-May-30 10:25N 59°55' E 030°15'0 0.0
2018-May-30 09:58N 59°55' E 030°15'0 0.0
2018-May-30 09:25N 59°55' E 030°15'0 0.0
2018-May-30 08:55N 59°55' E 030°15'0 0.0
2018-May-30 08:25N 59°55' E 030°15'0 0.0
2018-May-30 07:58N 59°55' E 030°15'0 0.0
2018-May-30 07:28N 59°55' E 030°15'0 0.0
2018-May-30 07:00N 59°55' E 030°15'0 0.0
2018-May-30 02:12N 59°55' E 030°15'0 0.0
2018-May-30 01:57N 59°55' E 030°15'0 0.0
2018-May-30 01:30N 59°55' E 030°15'0 0.0
2018-May-30 01:00N 59°55' E 030°15'0 0.0
2018-May-30 00:28N 59°55' E 030°15'0 0.0
2018-May-29 23:58N 59°55' E 030°15'0 0.0
2018-May-29 23:28N 59°55' E 030°15'0 0.0
2018-May-29 22:58N 59°55' E 030°15'0 0.0
2018-May-29 22:28N 59°55' E 030°15'0 0.0
2018-May-29 21:55N 59°55' E 030°15'0 0.0
2018-May-29 21:28N 59°55' E 030°15'0 0.0
2018-May-29 20:55N 59°55' E 030°15'0 0.0
2018-May-29 20:28N 59°55' E 030°15'0 0.0
2018-May-29 19:58N 59°55' E 030°15'0 0.0
2018-May-29 19:28N 59°55' E 030°15'0 0.0
2018-May-29 18:55N 59°55' E 030°15'0 0.0
2018-May-29 18:28N 59°55' E 030°15'0 0.0
2018-May-29 17:58N 59°55' E 030°15'0 0.0
2018-May-29 17:25N 59°55' E 030°15'0 0.0
2018-May-29 16:58N 59°55' E 030°15'0 0.0
2018-May-29 16:28N 59°55' E 030°15'0 0.0
2018-May-29 15:58N 59°55' E 030°15'0 0.0
2018-May-29 15:28N 59°55' E 030°15'0 0.0
2018-May-29 14:55N 59°55' E 030°15'0 0.0
2018-May-29 14:30N 59°55' E 030°15'0 0.0
2018-May-29 13:57N 59°55' E 030°15'0 0.0
2018-May-29 13:30N 59°55' E 030°15'0 0.0
2018-May-29 13:00N 59°55' E 030°15'0 0.0
2018-May-29 12:30N 59°55' E 030°15'0 0.0
2018-May-29 12:00N 59°55' E 030°15'0 0.0
2018-May-29 11:30N 59°55' E 030°15'0 0.0
2018-May-29 10:57N 59°55' E 030°15'0 0.0
2018-May-29 10:30N 59°55' E 030°15'0 0.0
2018-May-29 09:51N 59°55' E 030°15'0 0.0
2018-May-29 09:30N 59°55' E 030°15'0 0.0
2018-May-29 09:00N 59°55' E 030°15'0 0.0
2018-May-29 08:30N 59°55' E 030°15'0 0.0
2018-May-29 07:57N 59°55' E 030°15'0 0.0
2018-May-29 07:29N 59°55' E 030°15'0 0.0
2018-May-29 06:59N 59°55' E 030°15'0 0.0
2018-May-29 06:29N 59°55' E 030°15'0 0.0
2018-May-29 05:59N 59°55' E 030°15'0 0.0
2018-May-29 05:29N 59°55' E 030°15'0 0.0
2018-May-29 04:59N 59°55' E 030°15'0 0.0
2018-May-29 04:29N 59°55' E 030°15'0 0.0
2018-May-29 03:59N 59°55' E 030°15'0 0.0
2018-May-29 03:29N 59°55' E 030°15'0 0.0
2018-May-29 02:58N 59°55' E 030°15'0 0.0
2018-May-29 02:28N 59°55' E 030°15'0 0.0
2018-May-29 01:58N 59°55' E 030°15'0 0.0
2018-May-29 01:27N 59°55' E 030°15'0 0.0
2018-May-29 00:56N 59°55' E 030°15'0 0.0
2018-May-29 00:30N 59°55' E 030°15'0 0.0
2018-May-28 23:58N 59°55' E 030°15'0 0.0
2018-May-28 23:24N 59°55' E 030°15'0 0.0
2018-May-28 22:59N 59°55' E 030°15'0 0.0
2018-May-28 22:29N 59°55' E 030°15'0 0.0
2018-May-28 21:59N 59°55' E 030°15'0 0.0
2018-May-28 21:23N 59°55' E 030°15'0 0.0
2018-May-28 21:00N 59°55' E 030°15'0 0.0
2018-May-28 20:29N 59°55' E 030°15'0 0.0
2018-May-28 19:59N 59°55' E 030°15'0 0.0
2018-May-28 19:29N 59°55' E 030°15'0 0.0
2018-May-28 18:59N 59°55' E 030°15'0 0.0
2018-May-28 18:29N 59°55' E 030°15'0 0.0
2018-May-28 17:59N 59°55' E 030°15'0 0.0
2018-May-28 17:29N 59°55' E 030°15'0 0.0
2018-May-28 16:47N 59°55' E 030°15'0 0.0
2018-May-28 16:25N 59°55' E 030°15'0 0.0
2018-May-28 15:55N 59°55' E 030°15'0 0.0
2018-May-28 15:28N 59°55' E 030°15'0 0.0
2018-May-28 14:59N 59°55' E 030°15'0 0.0
2018-May-28 14:26N 59°55' E 030°15'0 0.0
2018-May-28 13:59N 59°55' E 030°15'0 0.0
2018-May-28 13:29N 59°55' E 030°15'0 0.0
2018-May-28 12:59N 59°55' E 030°15'0 0.0
2018-May-28 12:29N 59°55' E 030°15'0 0.0
2018-May-28 11:50N 59°55' E 030°15'0 0.0
2018-May-28 11:29N 59°55' E 030°15'0 0.0
2018-May-28 10:59N 59°55' E 030°15'0 0.0
2018-May-28 10:26N 59°55' E 030°15'0 0.0
2018-May-28 09:59N 59°55' E 030°15'0 0.0
2018-May-28 09:13N 59°55' E 030°15'0 0.0
2018-May-28 08:58N 59°55' E 030°15'0 0.0
2018-May-28 08:19N 59°55' E 030°15'0 0.0
2018-May-28 07:58N 59°55' E 030°15'0 0.0
2018-May-28 07:28N 59°55' E 030°15'0 0.0
2018-May-28 06:58N 59°55' E 030°15'0 0.0
2018-May-28 06:25N 59°55' E 030°15'0 0.0
2018-May-28 05:58N 59°55' E 030°15'0 0.0
2018-May-28 05:25N 59°55' E 030°15'0 0.0
2018-May-28 04:55N 59°55' E 030°15'0 0.0
2018-May-28 04:28N 59°55' E 030°15'0 0.0
2018-May-28 03:59N 59°55' E 030°15'0 0.0
2018-May-28 03:26N 59°55' E 030°15'0 0.0
2018-May-28 02:53N 59°55' E 030°15'0 0.0
2018-May-28 02:14N 59°55' E 030°15'0 0.0
2018-May-28 01:59N 59°55' E 030°15'0 0.0
2018-May-28 01:25N 59°55' E 030°15'0 0.0
2018-May-28 00:55N 59°55' E 030°15'0 0.0
2018-May-28 00:29N 59°55' E 030°15'0 0.0
2018-May-27 23:58N 59°55' E 030°15'0 0.0
2018-May-27 23:28N 59°55' E 030°15'0 0.0
2018-May-27 23:00N 59°55' E 030°15'0 0.0
2018-May-27 22:23N 59°55' E 030°15'0 0.0
2018-May-27 21:59N 59°55' E 030°15'0 0.0
2018-May-27 21:28N 59°55' E 030°15'0 0.0
2018-May-27 20:58N 59°55' E 030°15'0 0.0
2018-May-27 20:28N 59°55' E 030°15'0 0.0
2018-May-27 19:59N 59°55' E 030°15'0 0.0
2018-May-27 19:22N 59°55' E 030°15'0 0.0
2018-May-27 18:58N 59°55' E 030°15'0 0.0
2018-May-27 18:29N 59°55' E 030°15'0 0.0
2018-May-27 17:59N 59°55' E 030°15'0 0.0
2018-May-27 17:26N 59°55' E 030°15'0 0.0
2018-May-27 16:59N 59°55' E 030°15'0 0.0
2018-May-27 16:29N 59°55' E 030°15'0 0.0
2018-May-27 15:50N 59°55' E 030°15'0 0.0
2018-May-27 15:29N 59°55' E 030°15'0 0.0
2018-May-27 14:47N 59°55' E 030°15'0 0.0
2018-May-27 14:26N 59°55' E 030°15'0 0.0
2018-May-27 13:59N 59°55' E 030°15'0 0.0
2018-May-27 13:29N 59°55' E 030°15'0 0.0
2018-May-27 12:58N 59°55' E 030°15'0 0.0
2018-May-27 12:29N 59°55' E 030°15'0 0.0
2018-May-27 11:59N 59°55' E 030°15'  
Track history (hours):
 
Tides and Currents Weather Stations Pressure Air Temp Water Temp Dewpoint Dewpoint Depression Visibility Wind Speed Wind Dir Waves Ship Positions

Rusich-7

Last reported at 2018-Jun-06 11:38 UTC. Time now 2018-Jun-20 18:50 UTC.
Position N 56°19' E 044°06'.
Warning: this ship's position is 14 days out of date.

Length 128 m; draft 3 m.

Type: Cargo ship. MMSI: 273310950.

Date/timePositionNaut miles runAvg speedWind from/ knotsBaromVisibWave heightAir tempDewpointWater temp
2018-Jun-06 11:38N 56°19' E 044°06'110.1
2018-Jun-06 11:30N 56°20' E 044°05'5 9.2
2018-Jun-06 11:00N 56°21' E 043°57'4 8.8
2018-Jun-06 10:30N 56°24' E 043°52'4 7.4
2018-Jun-06 10:00N 56°25' E 043°45'  
2018-Jun-01 02:16N 59°50' E 030°32'2 5.8
2018-Jun-01 01:59N 59°51' E 030°30'3 4.7
2018-Jun-01 01:26N 59°53' E 030°27'1 2.1
2018-Jun-01 01:00N 59°54' E 030°26'1 1.3
2018-Jun-01 00:30N 59°54' E 030°25'2 3.0
2018-Jun-01 00:00N 59°56' E 030°24'2 3.2
2018-May-31 23:30N 59°57' E 030°23'2 5.0
2018-May-31 23:01N 59°56' E 030°18'2 3.4
2018-May-31 22:30N 59°55' E 030°16'0 0.8
2018-May-31 22:00N 59°55' E 030°15'0 0.0
2018-May-31 21:31N 59°55' E 030°15'0 0.0
2018-May-31 20:52N 59°55' E 030°15'0 0.0
2018-May-31 20:28N 59°55' E 030°15'0 0.0
2018-May-31 19:58N 59°55' E 030°15'0 0.0
2018-May-31 19:16N 59°55' E 030°15'0 0.0
2018-May-31 18:52N 59°55' E 030°15'0 0.0
2018-May-31 18:25N 59°55' E 030°15'0 0.0
2018-May-31 17:58N 59°55' E 030°15'0 0.0
2018-May-31 17:28N 59°55' E 030°15'0 0.0
2018-May-31 16:58N 59°55' E 030°15'0 0.0
2018-May-31 16:29N 59°55' E 030°15'0 0.0
2018-May-31 15:59N 59°55' E 030°15'0 0.0
2018-May-31 15:29N 59°55' E 030°15'0 0.0
2018-May-31 14:56N 59°55' E 030°15'0 0.0
2018-May-31 14:29N 59°55' E 030°15'0 0.0
2018-May-31 13:59N 59°55' E 030°15'0 0.0
2018-May-31 13:30N 59°55' E 030°15'0 0.0
2018-May-31 12:59N 59°55' E 030°15'0 0.0
2018-May-31 12:29N 59°55' E 030°15'0 0.0
2018-May-31 11:58N 59°55' E 030°15'0 0.0
2018-May-31 11:29N 59°55' E 030°15'0 0.0
2018-May-31 10:59N 59°55' E 030°15'0 0.0
2018-May-31 10:29N 59°55' E 030°15'0 0.0
2018-May-31 09:56N 59°55' E 030°15'0 0.0
2018-May-31 09:23N 59°55' E 030°15'0 0.0
2018-May-31 08:59N 59°55' E 030°15'0 0.0
2018-May-31 08:29N 59°55' E 030°15'0 0.0
2018-May-31 07:59N 59°55' E 030°15'0 0.0
2018-May-31 07:29N 59°55' E 030°15'0 0.0
2018-May-31 06:59N 59°55' E 030°15'0 0.0
2018-May-31 06:26N 59°55' E 030°15'0 0.0
2018-May-31 05:53N 59°55' E 030°15'0 0.0
2018-May-31 05:29N 59°55' E 030°15'0 0.0
2018-May-31 04:59N 59°55' E 030°15'0 0.0
2018-May-31 04:29N 59°55' E 030°15'0 0.0
2018-May-31 03:59N 59°55' E 030°15'0 0.0
2018-May-31 03:29N 59°55' E 030°15'0 0.0
2018-May-31 02:59N 59°55' E 030°15'0 0.0
2018-May-31 02:29N 59°55' E 030°15'0 0.0
2018-May-31 01:59N 59°55' E 030°15'0 0.0
2018-May-31 01:29N 59°55' E 030°15'0 0.0
2018-May-31 00:59N 59°55' E 030°15'0 0.0
2018-May-31 00:26N 59°55' E 030°15'0 0.0
2018-May-30 23:59N 59°55' E 030°15'0 0.0
2018-May-30 23:29N 59°55' E 030°15'0 0.0
2018-May-30 22:51N 59°55' E 030°15'0 0.0
2018-May-30 22:30N 59°55' E 030°15'0 0.0
2018-May-30 21:57N 59°55' E 030°15'0 0.0
2018-May-30 21:30N 59°55' E 030°15'0 0.0
2018-May-30 20:58N 59°55' E 030°15'0 0.0
2018-May-30 20:30N 59°55' E 030°15'0 0.0
2018-May-30 19:58N 59°55' E 030°15'0 0.0
2018-May-30 19:28N 59°55' E 030°15'0 0.0
2018-May-30 18:58N 59°55' E 030°15'0 0.0
2018-May-30 18:28N 59°55' E 030°15'0 0.0
2018-May-30 17:58N 59°55' E 030°15'0 0.0
2018-May-30 17:30N 59°55' E 030°15'0 0.0
2018-May-30 16:57N 59°55' E 030°15'0 0.0
2018-May-30 16:30N 59°55' E 030°15'0 0.0
2018-May-30 15:50N 59°55' E 030°15'0 0.0
2018-May-30 15:27N 59°55' E 030°15'0 0.0
2018-May-30 15:00N 59°55' E 030°15'0 0.0
2018-May-30 14:30N 59°55' E 030°15'0 0.0
2018-May-30 14:00N 59°55' E 030°15'0 0.0
2018-May-30 13:25N 59°55' E 030°15'0 0.0
2018-May-30 12:58N 59°55' E 030°15'0 0.0
2018-May-30 12:25N 59°55' E 030°15'0 0.0
2018-May-30 11:58N 59°55' E 030°15'0 0.0
2018-May-30 11:28N 59°55' E 030°15'0 0.0
2018-May-30 10:58N 59°55' E 030°15'0 0.0
2018-May-30 10:25N 59°55' E 030°15'0 0.0
2018-May-30 09:58N 59°55' E 030°15'0 0.0
2018-May-30 09:25N 59°55' E 030°15'0 0.0
2018-May-30 08:55N 59°55' E 030°15'0 0.0
2018-May-30 08:25N 59°55' E 030°15'0 0.0
2018-May-30 07:58N 59°55' E 030°15'0 0.0
2018-May-30 07:28N 59°55' E 030°15'0 0.0
2018-May-30 07:00N 59°55' E 030°15'0 0.0
2018-May-30 02:12N 59°55' E 030°15'0 0.0
2018-May-30 01:57N 59°55' E 030°15'0 0.0
2018-May-30 01:30N 59°55' E 030°15'0 0.0
2018-May-30 01:00N 59°55' E 030°15'0 0.0
2018-May-30 00:28N 59°55' E 030°15'0 0.0
2018-May-29 23:58N 59°55' E 030°15'0 0.0
2018-May-29 23:28N 59°55' E 030°15'0 0.0
2018-May-29 22:58N 59°55' E 030°15'0 0.0
2018-May-29 22:28N 59°55' E 030°15'0 0.0
2018-May-29 21:55N 59°55' E 030°15'0 0.0
2018-May-29 21:28N 59°55' E 030°15'0 0.0
2018-May-29 20:55N 59°55' E 030°15'0 0.0
2018-May-29 20:28N 59°55' E 030°15'0 0.0
2018-May-29 19:58N 59°55' E 030°15'0 0.0
2018-May-29 19:28N 59°55' E 030°15'0 0.0
2018-May-29 18:55N 59°55' E 030°15'0 0.0
2018-May-29 18:28N 59°55' E 030°15'0 0.0
2018-May-29 17:58N 59°55' E 030°15'0 0.0
2018-May-29 17:25N 59°55' E 030°15'0 0.0
2018-May-29 16:58N 59°55' E 030°15'0 0.0
2018-May-29 16:28N 59°55' E 030°15'0 0.0
2018-May-29 15:58N 59°55' E 030°15'0 0.0
2018-May-29 15:28N 59°55' E 030°15'0 0.0
2018-May-29 14:55N 59°55' E 030°15'0 0.0
2018-May-29 14:30N 59°55' E 030°15'0 0.0
2018-May-29 13:57N 59°55' E 030°15'0 0.0
2018-May-29 13:30N 59°55' E 030°15'0 0.0
2018-May-29 13:00N 59°55' E 030°15'0 0.0
2018-May-29 12:30N 59°55' E 030°15'0 0.0
2018-May-29 12:00N 59°55' E 030°15'0 0.0
2018-May-29 11:30N 59°55' E 030°15'0 0.0
2018-May-29 10:57N 59°55' E 030°15'0 0.0
2018-May-29 10:30N 59°55' E 030°15'0 0.0
2018-May-29 09:51N 59°55' E 030°15'0 0.0
2018-May-29 09:30N 59°55' E 030°15'0 0.0
2018-May-29 09:00N 59°55' E 030°15'0 0.0
2018-May-29 08:30N 59°55' E 030°15'0 0.0
2018-May-29 07:57N 59°55' E 030°15'0 0.0
2018-May-29 07:29N 59°55' E 030°15'0 0.0
2018-May-29 06:59N 59°55' E 030°15'0 0.0
2018-May-29 06:29N 59°55' E 030°15'0 0.0
2018-May-29 05:59N 59°55' E 030°15'0 0.0
2018-May-29 05:29N 59°55' E 030°15'0 0.0
2018-May-29 04:59N 59°55' E 030°15'0 0.0
2018-May-29 04:29N 59°55' E 030°15'0 0.0
2018-May-29 03:59N 59°55' E 030°15'0 0.0
2018-May-29 03:29N 59°55' E 030°15'0 0.0
2018-May-29 02:58N 59°55' E 030°15'0 0.0
2018-May-29 02:28N 59°55' E 030°15'0 0.0
2018-May-29 01:58N 59°55' E 030°15'0 0.0
2018-May-29 01:27N 59°55' E 030°15'0 0.0
2018-May-29 00:56N 59°55' E 030°15'0 0.0
2018-May-29 00:30N 59°55' E 030°15'0 0.0
2018-May-28 23:58N 59°55' E 030°15'0 0.0
2018-May-28 23:24N 59°55' E 030°15'0 0.0
2018-May-28 22:59N 59°55' E 030°15'0 0.0
2018-May-28 22:29N 59°55' E 030°15'0 0.0
2018-May-28 21:59N 59°55' E 030°15'0 0.0
2018-May-28 21:23N 59°55' E 030°15'0 0.0
2018-May-28 21:00N 59°55' E 030°15'0 0.0
2018-May-28 20:29N 59°55' E 030°15'0 0.0
2018-May-28 19:59N 59°55' E 030°15'0 0.0
2018-May-28 19:29N 59°55' E 030°15'0 0.0
2018-May-28 18:59N 59°55' E 030°15'0 0.0
2018-May-28 18:29N 59°55' E 030°15'0 0.0
2018-May-28 17:59N 59°55' E 030°15'0 0.0
2018-May-28 17:29N 59°55' E 030°15'0 0.0
2018-May-28 16:47N 59°55' E 030°15'0 0.0
2018-May-28 16:25N 59°55' E 030°15'0 0.0
2018-May-28 15:55N 59°55' E 030°15'0 0.0
2018-May-28 15:28N 59°55' E 030°15'0 0.0
2018-May-28 14:59N 59°55' E 030°15'0 0.0
2018-May-28 14:26N 59°55' E 030°15'0 0.0
2018-May-28 13:59N 59°55' E 030°15'0 0.0
2018-May-28 13:29N 59°55' E 030°15'0 0.0
2018-May-28 12:59N 59°55' E 030°15'0 0.0
2018-May-28 12:29N 59°55' E 030°15'0 0.0
2018-May-28 11:50N 59°55' E 030°15'0 0.0
2018-May-28 11:29N 59°55' E 030°15'0 0.0
2018-May-28 10:59N 59°55' E 030°15'0 0.0
2018-May-28 10:26N 59°55' E 030°15'0 0.0
2018-May-28 09:59N 59°55' E 030°15'0 0.0
2018-May-28 09:13N 59°55' E 030°15'0 0.0
2018-May-28 08:58N 59°55' E 030°15'0 0.0
2018-May-28 08:19N 59°55' E 030°15'0 0.0
2018-May-28 07:58N 59°55' E 030°15'0 0.0
2018-May-28 07:28N 59°55' E 030°15'0 0.0
2018-May-28 06:58N 59°55' E 030°15'0 0.0
2018-May-28 06:25N 59°55' E 030°15'0 0.0
2018-May-28 05:58N 59°55' E 030°15'0 0.0
2018-May-28 05:25N 59°55' E 030°15'0 0.0
2018-May-28 04:55N 59°55' E 030°15'0 0.0
2018-May-28 04:28N 59°55' E 030°15'0 0.0
2018-May-28 03:59N 59°55' E 030°15'0 0.0
2018-May-28 03:26N 59°55' E 030°15'0 0.0
2018-May-28 02:53N 59°55' E 030°15'0 0.0
2018-May-28 02:14N 59°55' E 030°15'0 0.0
2018-May-28 01:59N 59°55' E 030°15'0 0.0
2018-May-28 01:25N 59°55' E 030°15'0 0.0
2018-May-28 00:55N 59°55' E 030°15'0 0.0
2018-May-28 00:29N 59°55' E 030°15'0 0.0
2018-May-27 23:58N 59°55' E 030°15'0 0.0
2018-May-27 23:28N 59°55' E 030°15'0 0.0
2018-May-27 23:00N 59°55' E 030°15'0 0.0
2018-May-27 22:23N 59°55' E 030°15'0 0.0
2018-May-27 21:59N 59°55' E 030°15'0 0.0
2018-May-27 21:28N 59°55' E 030°15'0 0.0
2018-May-27 20:58N 59°55' E 030°15'0 0.0
2018-May-27 20:28N 59°55' E 030°15'0 0.0
2018-May-27 19:59N 59°55' E 030°15'0 0.0
2018-May-27 19:22N 59°55' E 030°15'0 0.0
2018-May-27 18:58N 59°55' E 030°15'0 0.0
2018-May-27 18:29N 59°55' E 030°15'0 0.0
2018-May-27 17:59N 59°55' E 030°15'0 0.0
2018-May-27 17:26N 59°55' E 030°15'0 0.0
2018-May-27 16:59N 59°55' E 030°15'0 0.0
2018-May-27 16:29N 59°55' E 030°15'0 0.0
2018-May-27 15:50N 59°55' E 030°15'0 0.0
2018-May-27 15:29N 59°55' E 030°15'0 0.0
2018-May-27 14:47N 59°55' E 030°15'0 0.0
2018-May-27 14:26N 59°55' E 030°15'0 0.0
2018-May-27 13:59N 59°55' E 030°15'0 0.0
2018-May-27 13:29N 59°55' E 030°15'0 0.0
2018-May-27 12:58N 59°55' E 030°15'0 0.0
2018-May-27 12:29N 59°55' E 030°15'0 0.0
2018-May-27 11:59N 59°55' E 030°15'  

Dump ship's entire track history